sensor_id;sensor_type;location;lat;lon;timestamp;pressure;altitude;pressure_sealevel;temperature
14023;BMP180;7086;48.116;11.580;2023-07-08T00:01:08;95583.00;;;24.00
14023;BMP180;7086;48.116;11.580;2023-07-08T00:03:36;95578.00;;;24.00
14023;BMP180;7086;48.116;11.580;2023-07-08T00:06:03;95580.00;;;23.90
14023;BMP180;7086;48.116;11.580;2023-07-08T00:08:31;95587.00;;;23.90
14023;BMP180;7086;48.116;11.580;2023-07-08T00:10:58;95585.00;;;23.90
14023;BMP180;7086;48.116;11.580;2023-07-08T00:13:25;95584.00;;;23.90
14023;BMP180;7086;48.116;11.580;2023-07-08T00:15:51;95582.00;;;23.80
14023;BMP180;7086;48.116;11.580;2023-07-08T00:18:18;95566.00;;;23.80
14023;BMP180;7086;48.116;11.580;2023-07-08T00:20:47;95570.00;;;23.70
14023;BMP180;7086;48.116;11.580;2023-07-08T00:23:14;95557.00;;;23.70
14023;BMP180;7086;48.116;11.580;2023-07-08T00:25:42;95560.00;;;23.60
14023;BMP180;7086;48.116;11.580;2023-07-08T00:28:10;95570.00;;;23.60
14023;BMP180;7086;48.116;11.580;2023-07-08T00:30:38;95572.00;;;23.50
14023;BMP180;7086;48.116;11.580;2023-07-08T00:33:06;95569.00;;;23.40
14023;BMP180;7086;48.116;11.580;2023-07-08T00:35:35;95567.00;;;23.40
14023;BMP180;7086;48.116;11.580;2023-07-08T00:38:04;95564.00;;;23.40
14023;BMP180;7086;48.116;11.580;2023-07-08T00:40:38;95561.00;;;23.30
14023;BMP180;7086;48.116;11.580;2023-07-08T00:43:16;95547.00;;;23.30
14023;BMP180;7086;48.116;11.580;2023-07-08T00:45:47;95541.00;;;23.30
14023;BMP180;7086;48.116;11.580;2023-07-08T00:48:19;95555.00;;;23.20
14023;BMP180;7086;48.116;11.580;2023-07-08T00:50:47;95566.00;;;23.30
14023;BMP180;7086;48.116;11.580;2023-07-08T00:53:25;95549.00;;;23.20
14023;BMP180;7086;48.116;11.580;2023-07-08T00:55:55;95564.00;;;23.20
14023;BMP180;7086;48.116;11.580;2023-07-08T00:58:30;95576.00;;;23.10
14023;BMP180;7086;48.116;11.580;2023-07-08T01:00:58;95573.00;;;23.10
14023;BMP180;7086;48.116;11.580;2023-07-08T01:03:25;95557.00;;;23.10
14023;BMP180;7086;48.116;11.580;2023-07-08T01:05:55;95562.00;;;23.00
14023;BMP180;7086;48.116;11.580;2023-07-08T01:08:26;95559.00;;;23.00
14023;BMP180;7086;48.116;11.580;2023-07-08T01:10:59;95565.00;;;23.00
14023;BMP180;7086;48.116;11.580;2023-07-08T01:13:32;95553.00;;;23.00
14023;BMP180;7086;48.116;11.580;2023-07-08T01:16:01;95555.00;;;22.90
14023;BMP180;7086;48.116;11.580;2023-07-08T01:18:28;95557.00;;;22.90
14023;BMP180;7086;48.116;11.580;2023-07-08T01:20:55;95555.00;;;22.90
14023;BMP180;7086;48.116;11.580;2023-07-08T01:23:24;95571.00;;;22.90
14023;BMP180;7086;48.116;11.580;2023-07-08T01:25:52;95573.00;;;22.90
14023;BMP180;7086;48.116;11.580;2023-07-08T01:28:19;95571.00;;;22.90
14023;BMP180;7086;48.116;11.580;2023-07-08T01:30:47;95569.00;;;22.90
14023;BMP180;7086;48.116;11.580;2023-07-08T01:33:17;95561.00;;;22.90
14023;BMP180;7086;48.116;11.580;2023-07-08T01:35:46;95572.00;;;22.80
14023;BMP180;7086;48.116;11.580;2023-07-08T01:38:16;95577.00;;;22.90
14023;BMP180;7086;48.116;11.580;2023-07-08T01:40:52;95575.00;;;22.80
14023;BMP180;7086;48.116;11.580;2023-07-08T01:43:20;95575.00;;;22.80
14023;BMP180;7086;48.116;11.580;2023-07-08T01:45:48;95567.00;;;22.80
14023;BMP180;7086;48.116;11.580;2023-07-08T01:48:17;95563.00;;;22.80
14023;BMP180;7086;48.116;11.580;2023-07-08T01:50:47;95544.00;;;22.80
14023;BMP180;7086;48.116;11.580;2023-07-08T01:53:18;95560.00;;;22.80
14023;BMP180;7086;48.116;11.580;2023-07-08T01:55:45;95555.00;;;22.80
14023;BMP180;7086;48.116;11.580;2023-07-08T01:58:13;95560.00;;;22.80
14023;BMP180;7086;48.116;11.580;2023-07-08T02:00:40;95561.00;;;22.80
14023;BMP180;7086;48.116;11.580;2023-07-08T02:03:07;95558.00;;;22.80
14023;BMP180;7086;48.116;11.580;2023-07-08T02:05:35;95548.00;;;22.80
14023;BMP180;7086;48.116;11.580;2023-07-08T02:08:02;95561.00;;;22.80
14023;BMP180;7086;48.116;11.580;2023-07-08T02:10:28;95559.00;;;22.80
14023;BMP180;7086;48.116;11.580;2023-07-08T02:12:55;95558.00;;;22.70
14023;BMP180;7086;48.116;11.580;2023-07-08T02:15:24;95554.00;;;22.70
14023;BMP180;7086;48.116;11.580;2023-07-08T02:17:51;95550.00;;;22.70
14023;BMP180;7086;48.116;11.580;2023-07-08T02:20:18;95523.00;;;22.70
14023;BMP180;7086;48.116;11.580;2023-07-08T02:22:45;95553.00;;;22.70
14023;BMP180;7086;48.116;11.580;2023-07-08T02:25:12;95549.00;;;22.70
14023;BMP180;7086;48.116;11.580;2023-07-08T02:27:39;95550.00;;;22.70
14023;BMP180;7086;48.116;11.580;2023-07-08T02:30:06;95550.00;;;22.70
14023;BMP180;7086;48.116;11.580;2023-07-08T02:32:36;95550.00;;;22.70
14023;BMP180;7086;48.116;11.580;2023-07-08T02:35:04;95546.00;;;22.80
14023;BMP180;7086;48.116;11.580;2023-07-08T02:37:31;95535.00;;;22.80
14023;BMP180;7086;48.116;11.580;2023-07-08T02:39:58;95542.00;;;22.80
14023;BMP180;7086;48.116;11.580;2023-07-08T02:42:25;95534.00;;;22.80
14023;BMP180;7086;48.116;11.580;2023-07-08T02:44:52;95532.00;;;22.80
14023;BMP180;7086;48.116;11.580;2023-07-08T02:47:18;95524.00;;;22.70
14023;BMP180;7086;48.116;11.580;2023-07-08T02:49:47;95534.00;;;22.70
14023;BMP180;7086;48.116;11.580;2023-07-08T02:52:13;95545.00;;;22.70
14023;BMP180;7086;48.116;11.580;2023-07-08T02:54:40;95546.00;;;22.70
14023;BMP180;7086;48.116;11.580;2023-07-08T02:57:07;95544.00;;;22.60
14023;BMP180;7086;48.116;11.580;2023-07-08T02:59:33;95550.00;;;22.60
14023;BMP180;7086;48.116;11.580;2023-07-08T03:02:00;95540.00;;;22.60
14023;BMP180;7086;48.116;11.580;2023-07-08T03:04:27;95540.00;;;22.60
14023;BMP180;7086;48.116;11.580;2023-07-08T03:06:56;95538.00;;;22.60
14023;BMP180;7086;48.116;11.580;2023-07-08T03:09:24;95541.00;;;22.60
14023;BMP180;7086;48.116;11.580;2023-07-08T03:11:51;95539.00;;;22.60
14023;BMP180;7086;48.116;11.580;2023-07-08T03:14:18;95541.00;;;22.60
14023;BMP180;7086;48.116;11.580;2023-07-08T03:16:45;95509.00;;;22.60
14023;BMP180;7086;48.116;11.580;2023-07-08T03:19:12;95525.00;;;22.60
14023;BMP180;7086;48.116;11.580;2023-07-08T03:21:40;95556.00;;;22.60
14023;BMP180;7086;48.116;11.580;2023-07-08T03:24:09;95547.00;;;22.70
14023;BMP180;7086;48.116;11.580;2023-07-08T03:26:36;95551.00;;;22.70
14023;BMP180;7086;48.116;11.580;2023-07-08T03:29:04;95541.00;;;22.70
14023;BMP180;7086;48.116;11.580;2023-07-08T03:31:31;95538.00;;;22.70
14023;BMP180;7086;48.116;11.580;2023-07-08T03:33:58;95531.00;;;22.70
14023;BMP180;7086;48.116;11.580;2023-07-08T03:36:24;95532.00;;;22.80
14023;BMP180;7086;48.116;11.580;2023-07-08T03:38:54;95520.00;;;22.80
14023;BMP180;7086;48.116;11.580;2023-07-08T03:41:23;95521.00;;;22.80
14023;BMP180;7086;48.116;11.580;2023-07-08T03:43:50;95538.00;;;22.80
14023;BMP180;7086;48.116;11.580;2023-07-08T03:46:18;95545.00;;;22.80
14023;BMP180;7086;48.116;11.580;2023-07-08T03:48:46;95538.00;;;22.80
14023;BMP180;7086;48.116;11.580;2023-07-08T03:51:24;95495.00;;;22.80
14023;BMP180;7086;48.116;11.580;2023-07-08T03:53:52;95534.00;;;22.80
14023;BMP180;7086;48.116;11.580;2023-07-08T03:56:18;95533.00;;;22.80
14023;BMP180;7086;48.116;11.580;2023-07-08T03:58:47;95542.00;;;22.80
14023;BMP180;7086;48.116;11.580;2023-07-08T04:01:15;95548.00;;;22.70
14023;BMP180;7086;48.116;11.580;2023-07-08T04:03:42;95555.00;;;22.80
14023;BMP180;7086;48.116;11.580;2023-07-08T04:06:09;95547.00;;;22.70
14023;BMP180;7086;48.116;11.580;2023-07-08T04:08:36;95547.00;;;22.70
14023;BMP180;7086;48.116;11.580;2023-07-08T04:11:03;95544.00;;;22.70
14023;BMP180;7086;48.116;11.580;2023-07-08T04:13:30;95557.00;;;22.70
14023;BMP180;7086;48.116;11.580;2023-07-08T04:16:00;95555.00;;;22.70
14023;BMP180;7086;48.116;11.580;2023-07-08T04:18:27;95554.00;;;22.80
14023;BMP180;7086;48.116;11.580;2023-07-08T04:20:54;95550.00;;;22.80
14023;BMP180;7086;48.116;11.580;2023-07-08T04:23:21;95551.00;;;22.80
14023;BMP180;7086;48.116;11.580;2023-07-08T04:25:50;95537.00;;;22.80
14023;BMP180;7086;48.116;11.580;2023-07-08T04:28:17;95539.00;;;22.90
14023;BMP180;7086;48.116;11.580;2023-07-08T04:30:43;95537.00;;;22.90
14023;BMP180;7086;48.116;11.580;2023-07-08T04:33:13;95551.00;;;22.90
14023;BMP180;7086;48.116;11.580;2023-07-08T04:35:41;95544.00;;;22.80
14023;BMP180;7086;48.116;11.580;2023-07-08T04:38:14;95547.00;;;23.00
14023;BMP180;7086;48.116;11.580;2023-07-08T04:40:42;95553.00;;;23.00
14023;BMP180;7086;48.116;11.580;2023-07-08T04:43:09;95555.00;;;23.00
14023;BMP180;7086;48.116;11.580;2023-07-08T04:45:37;95560.00;;;23.10
14023;BMP180;7086;48.116;11.580;2023-07-08T04:48:05;95577.00;;;23.10
14023;BMP180;7086;48.116;11.580;2023-07-08T04:50:40;95590.00;;;23.20
14023;BMP180;7086;48.116;11.580;2023-07-08T04:53:08;95588.00;;;23.20
14023;BMP180;7086;48.116;11.580;2023-07-08T04:55:35;95590.00;;;23.30
14023;BMP180;7086;48.116;11.580;2023-07-08T04:58:02;95598.00;;;23.30
14023;BMP180;7086;48.116;11.580;2023-07-08T05:00:28;95596.00;;;23.40
14023;BMP180;7086;48.116;11.580;2023-07-08T05:02:55;95602.00;;;23.40
14023;BMP180;7086;48.116;11.580;2023-07-08T05:05:22;95599.00;;;23.50
14023;BMP180;7086;48.116;11.580;2023-07-08T05:07:50;95609.00;;;23.50
14023;BMP180;7086;48.116;11.580;2023-07-08T05:10:18;95607.00;;;23.60
14023;BMP180;7086;48.116;11.580;2023-07-08T05:12:45;95581.00;;;23.60
14023;BMP180;7086;48.116;11.580;2023-07-08T05:15:12;95612.00;;;23.70
14023;BMP180;7086;48.116;11.580;2023-07-08T05:17:40;95607.00;;;23.70
14023;BMP180;7086;48.116;11.580;2023-07-08T05:20:09;95618.00;;;23.80
14023;BMP180;7086;48.116;11.580;2023-07-08T05:22:36;95605.00;;;23.90
14023;BMP180;7086;48.116;11.580;2023-07-08T05:25:05;95615.00;;;24.00
14023;BMP180;7086;48.116;11.580;2023-07-08T05:27:32;95612.00;;;24.10
14023;BMP180;7086;48.116;11.580;2023-07-08T05:29:59;95624.00;;;24.20
14023;BMP180;7086;48.116;11.580;2023-07-08T05:32:26;95622.00;;;24.30
14023;BMP180;7086;48.116;11.580;2023-07-08T05:34:53;95624.00;;;24.40
14023;BMP180;7086;48.116;11.580;2023-07-08T05:37:20;95608.00;;;24.60
14023;BMP180;7086;48.116;11.580;2023-07-08T05:39:50;95603.00;;;24.70
14023;BMP180;7086;48.116;11.580;2023-07-08T05:42:19;95600.00;;;25.00
14023;BMP180;7086;48.116;11.580;2023-07-08T05:44:46;95599.00;;;25.20
14023;BMP180;7086;48.116;11.580;2023-07-08T05:47:14;95592.00;;;25.40
14023;BMP180;7086;48.116;11.580;2023-07-08T05:49:41;95606.00;;;25.70
14023;BMP180;7086;48.116;11.580;2023-07-08T05:52:08;95599.00;;;26.00
14023;BMP180;7086;48.116;11.580;2023-07-08T05:54:36;95593.00;;;26.40
14023;BMP180;7086;48.116;11.580;2023-07-08T05:57:04;95598.00;;;26.80
14023;BMP180;7086;48.116;11.580;2023-07-08T05:59:33;95600.00;;;27.30
14023;BMP180;7086;48.116;11.580;2023-07-08T06:02:00;95606.00;;;27.60
14023;BMP180;7086;48.116;11.580;2023-07-08T06:04:27;95586.00;;;28.00
14023;BMP180;7086;48.116;11.580;2023-07-08T06:06:54;95605.00;;;28.30
14023;BMP180;7086;48.116;11.580;2023-07-08T06:09:21;95602.00;;;28.70
14023;BMP180;7086;48.116;11.580;2023-07-08T06:11:47;95605.00;;;29.00
14023;BMP180;7086;48.116;11.580;2023-07-08T06:14:14;95596.00;;;29.30
14023;BMP180;7086;48.116;11.580;2023-07-08T06:16:42;95584.00;;;29.60
14023;BMP180;7086;48.116;11.580;2023-07-08T06:19:10;95606.00;;;29.80
14023;BMP180;7086;48.116;11.580;2023-07-08T06:21:36;95605.00;;;29.90
14023;BMP180;7086;48.116;11.580;2023-07-08T06:24:04;95603.00;;;30.00
14023;BMP180;7086;48.116;11.580;2023-07-08T06:26:31;95609.00;;;30.10
14023;BMP180;7086;48.116;11.580;2023-07-08T06:28:57;95605.00;;;30.20
14023;BMP180;7086;48.116;11.580;2023-07-08T06:31:24;95612.00;;;30.20
14023;BMP180;7086;48.116;11.580;2023-07-08T06:33:52;95605.00;;;30.30
14023;BMP180;7086;48.116;11.580;2023-07-08T06:36:19;95603.00;;;30.40
14023;BMP180;7086;48.116;11.580;2023-07-08T06:38:46;95604.00;;;30.60
14023;BMP180;7086;48.116;11.580;2023-07-08T06:41:12;95600.00;;;30.80
14023;BMP180;7086;48.116;11.580;2023-07-08T06:43:39;95604.00;;;31.00
14023;BMP180;7086;48.116;11.580;2023-07-08T06:46:06;95608.00;;;31.10
14023;BMP180;7086;48.116;11.580;2023-07-08T06:48:33;95607.00;;;31.30
14023;BMP180;7086;48.116;11.580;2023-07-08T06:51:01;95607.00;;;31.30
14023;BMP180;7086;48.116;11.580;2023-07-08T06:53:28;95624.00;;;31.20
14023;BMP180;7086;48.116;11.580;2023-07-08T06:55:54;95599.00;;;31.20
14023;BMP180;7086;48.116;11.580;2023-07-08T06:58:21;95619.00;;;31.20
14023;BMP180;7086;48.116;11.580;2023-07-08T07:00:48;95630.00;;;31.10
14023;BMP180;7086;48.116;11.580;2023-07-08T07:03:14;95625.00;;;31.00
14023;BMP180;7086;48.116;11.580;2023-07-08T07:05:43;95629.00;;;30.90
14023;BMP180;7086;48.116;11.580;2023-07-08T07:08:11;95628.00;;;30.80
14023;BMP180;7086;48.116;11.580;2023-07-08T07:10:38;95626.00;;;30.80
14023;BMP180;7086;48.116;11.580;2023-07-08T07:13:04;95622.00;;;30.80
14023;BMP180;7086;48.116;11.580;2023-07-08T07:15:32;95624.00;;;30.80
14023;BMP180;7086;48.116;11.580;2023-07-08T07:17:58;95618.00;;;30.80
14023;BMP180;7086;48.116;11.580;2023-07-08T07:20:26;95620.00;;;30.90
14023;BMP180;7086;48.116;11.580;2023-07-08T07:22:53;95625.00;;;31.00
14023;BMP180;7086;48.116;11.580;2023-07-08T07:25:21;95623.00;;;31.30
14023;BMP180;7086;48.116;11.580;2023-07-08T07:27:48;95626.00;;;31.40
14023;BMP180;7086;48.116;11.580;2023-07-08T07:30:15;95622.00;;;31.60
14023;BMP180;7086;48.116;11.580;2023-07-08T07:32:42;95615.00;;;31.70
14023;BMP180;7086;48.116;11.580;2023-07-08T07:35:09;95624.00;;;31.70
14023;BMP180;7086;48.116;11.580;2023-07-08T07:37:39;95629.00;;;31.80
14023;BMP180;7086;48.116;11.580;2023-07-08T07:40:07;95612.00;;;31.90
14023;BMP180;7086;48.116;11.580;2023-07-08T07:42:39;95636.00;;;31.90
14023;BMP180;7086;48.116;11.580;2023-07-08T07:45:07;95646.00;;;31.90
14023;BMP180;7086;48.116;11.580;2023-07-08T07:47:34;95663.00;;;32.00
14023;BMP180;7086;48.116;11.580;2023-07-08T07:50:01;95660.00;;;32.00
14023;BMP180;7086;48.116;11.580;2023-07-08T07:52:27;95673.00;;;32.10
14023;BMP180;7086;48.116;11.580;2023-07-08T07:54:55;95676.00;;;32.10
14023;BMP180;7086;48.116;11.580;2023-07-08T07:57:21;95680.00;;;32.30
14023;BMP180;7086;48.116;11.580;2023-07-08T07:59:50;95682.00;;;32.40
14023;BMP180;7086;48.116;11.580;2023-07-08T08:02:17;95684.00;;;32.60
14023;BMP180;7086;48.116;11.580;2023-07-08T08:04:44;95698.00;;;32.70
14023;BMP180;7086;48.116;11.580;2023-07-08T08:07:11;95693.00;;;32.90
14023;BMP180;7086;48.116;11.580;2023-07-08T08:09:38;95699.00;;;33.10
14023;BMP180;7086;48.116;11.580;2023-07-08T08:12:08;95692.00;;;33.30
14023;BMP180;7086;48.116;11.580;2023-07-08T08:14:36;95700.00;;;33.40
14023;BMP180;7086;48.116;11.580;2023-07-08T08:17:04;95702.00;;;33.50
14023;BMP180;7086;48.116;11.580;2023-07-08T08:19:31;95702.00;;;33.40
14023;BMP180;7086;48.116;11.580;2023-07-08T08:21:58;95697.00;;;33.40
14023;BMP180;7086;48.116;11.580;2023-07-08T08:24:25;95709.00;;;33.40
14023;BMP180;7086;48.116;11.580;2023-07-08T08:26:52;95720.00;;;33.50
14023;BMP180;7086;48.116;11.580;2023-07-08T08:29:19;95721.00;;;33.50
14023;BMP180;7086;48.116;11.580;2023-07-08T08:31:45;95729.00;;;33.50
14023;BMP180;7086;48.116;11.580;2023-07-08T08:34:13;95728.00;;;33.50
14023;BMP180;7086;48.116;11.580;2023-07-08T08:36:40;95719.00;;;33.60
14023;BMP180;7086;48.116;11.580;2023-07-08T08:39:08;95708.00;;;33.70
14023;BMP180;7086;48.116;11.580;2023-07-08T08:41:37;95700.00;;;33.80
14023;BMP180;7086;48.116;11.580;2023-07-08T08:44:06;95719.00;;;33.80
14023;BMP180;7086;48.116;11.580;2023-07-08T08:46:38;95718.00;;;33.90
14023;BMP180;7086;48.116;11.580;2023-07-08T08:49:18;95711.00;;;34.00
14023;BMP180;7086;48.116;11.580;2023-07-08T08:51:49;95714.00;;;34.10
14023;BMP180;7086;48.116;11.580;2023-07-08T08:54:17;95710.00;;;34.10
14023;BMP180;7086;48.116;11.580;2023-07-08T08:56:50;95716.00;;;34.00
14023;BMP180;7086;48.116;11.580;2023-07-08T08:59:25;95721.00;;;33.90
14023;BMP180;7086;48.116;11.580;2023-07-08T09:01:55;95693.00;;;33.80
14023;BMP180;7086;48.116;11.580;2023-07-08T09:04:27;95707.00;;;33.60
14023;BMP180;7086;48.116;11.580;2023-07-08T09:07:02;95719.00;;;33.50
14023;BMP180;7086;48.116;11.580;2023-07-08T09:09:36;95708.00;;;33.60
14023;BMP180;7086;48.116;11.580;2023-07-08T09:12:08;95721.00;;;33.70
14023;BMP180;7086;48.116;11.580;2023-07-08T09:14:36;95728.00;;;33.70
14023;BMP180;7086;48.116;11.580;2023-07-08T09:17:15;95725.00;;;33.90
14023;BMP180;7086;48.116;11.580;2023-07-08T09:19:51;95725.00;;;34.00
14023;BMP180;7086;48.116;11.580;2023-07-08T09:22:21;95732.00;;;34.10
14023;BMP180;7086;48.116;11.580;2023-07-08T09:24:54;95724.00;;;34.30
14023;BMP180;7086;48.116;11.580;2023-07-08T09:27:22;95724.00;;;34.60
14023;BMP180;7086;48.116;11.580;2023-07-08T09:29:49;95726.00;;;34.80
14023;BMP180;7086;48.116;11.580;2023-07-08T09:32:19;95728.00;;;34.90
14023;BMP180;7086;48.116;11.580;2023-07-08T09:34:50;95722.00;;;34.90
14023;BMP180;7086;48.116;11.580;2023-07-08T09:37:23;95728.00;;;35.00
14023;BMP180;7086;48.116;11.580;2023-07-08T09:39:51;95731.00;;;35.20
14023;BMP180;7086;48.116;11.580;2023-07-08T09:42:19;95734.00;;;35.40
14023;BMP180;7086;48.116;11.580;2023-07-08T09:44:47;95731.00;;;35.50
14023;BMP180;7086;48.116;11.580;2023-07-08T09:47:21;95729.00;;;35.50
14023;BMP180;7086;48.116;11.580;2023-07-08T09:49:51;95704.00;;;35.60
14023;BMP180;7086;48.116;11.580;2023-07-08T09:52:18;95733.00;;;35.80
14023;BMP180;7086;48.116;11.580;2023-07-08T09:54:46;95727.00;;;36.20
14023;BMP180;7086;48.116;11.580;2023-07-08T09:57:22;95729.00;;;36.40
14023;BMP180;7086;48.116;11.580;2023-07-08T09:59:54;95730.00;;;36.70
14023;BMP180;7086;48.116;11.580;2023-07-08T10:02:27;95717.00;;;37.00
14023;BMP180;7086;48.116;11.580;2023-07-08T10:04:57;95724.00;;;37.50
14023;BMP180;7086;48.116;11.580;2023-07-08T10:07:29;95737.00;;;37.90
14023;BMP180;7086;48.116;11.580;2023-07-08T10:09:57;95737.00;;;38.30
14023;BMP180;7086;48.116;11.580;2023-07-08T10:12:25;95731.00;;;38.50
14023;BMP180;7086;48.116;11.580;2023-07-08T10:14:58;95743.00;;;38.50
14023;BMP180;7086;48.116;11.580;2023-07-08T10:17:26;95738.00;;;38.60
14023;BMP180;7086;48.116;11.580;2023-07-08T10:19:53;95744.00;;;38.70
14023;BMP180;7086;48.116;11.580;2023-07-08T10:22:29;95755.00;;;38.90
14023;BMP180;7086;48.116;11.580;2023-07-08T10:25:11;95750.00;;;39.20
14023;BMP180;7086;48.116;11.580;2023-07-08T10:27:45;95752.00;;;39.30
14023;BMP180;7086;48.116;11.580;2023-07-08T10:30:21;95745.00;;;39.40
14023;BMP180;7086;48.116;11.580;2023-07-08T10:32:59;95751.00;;;39.60
14023;BMP180;7086;48.116;11.580;2023-07-08T10:35:35;95756.00;;;39.70
14023;BMP180;7086;48.116;11.580;2023-07-08T10:38:18;95755.00;;;39.90
14023;BMP180;7086;48.116;11.580;2023-07-08T10:40:49;95740.00;;;40.10
14023;BMP180;7086;48.116;11.580;2023-07-08T10:43:30;95751.00;;;40.20
14023;BMP180;7086;48.116;11.580;2023-07-08T10:46:11;95756.00;;;40.20
14023;BMP180;7086;48.116;11.580;2023-07-08T10:48:52;95748.00;;;40.20
14023;BMP180;7086;48.116;11.580;2023-07-08T10:51:28;95755.00;;;40.20
14023;BMP180;7086;48.116;11.580;2023-07-08T10:54:10;95752.00;;;40.10
14023;BMP180;7086;48.116;11.580;2023-07-08T10:56:46;95749.00;;;39.80
14023;BMP180;7086;48.116;11.580;2023-07-08T10:59:27;95751.00;;;39.60
14023;BMP180;7086;48.116;11.580;2023-07-08T11:02:08;95746.00;;;39.50
14023;BMP180;7086;48.116;11.580;2023-07-08T11:04:50;95735.00;;;39.50
14023;BMP180;7086;48.116;11.580;2023-07-08T11:07:27;95739.00;;;39.50
14023;BMP180;7086;48.116;11.580;2023-07-08T11:09:59;95743.00;;;39.50
14023;BMP180;7086;48.116;11.580;2023-07-08T11:12:31;95737.00;;;39.60
14023;BMP180;7086;48.116;11.580;2023-07-08T11:15:05;95737.00;;;39.70
14023;BMP180;7086;48.116;11.580;2023-07-08T11:17:38;95720.00;;;39.80
14023;BMP180;7086;48.116;11.580;2023-07-08T11:20:14;95735.00;;;39.70
14023;BMP180;7086;48.116;11.580;2023-07-08T11:22:48;95737.00;;;39.50
14023;BMP180;7086;48.116;11.580;2023-07-08T11:25:19;95737.00;;;39.30
14023;BMP180;7086;48.116;11.580;2023-07-08T11:27:49;95731.00;;;39.30
14023;BMP180;7086;48.116;11.580;2023-07-08T11:30:22;95735.00;;;39.40
14023;BMP180;7086;48.116;11.580;2023-07-08T11:32:57;95742.00;;;39.40
14023;BMP180;7086;48.116;11.580;2023-07-08T11:35:32;95739.00;;;39.30
14023;BMP180;7086;48.116;11.580;2023-07-08T11:38:00;95736.00;;;39.10
14023;BMP180;7086;48.116;11.580;2023-07-08T11:40:29;95729.00;;;38.80
14023;BMP180;7086;48.116;11.580;2023-07-08T11:43:00;95727.00;;;38.50
14023;BMP180;7086;48.116;11.580;2023-07-08T11:45:31;95723.00;;;38.20
14023;BMP180;7086;48.116;11.580;2023-07-08T11:48:05;95718.00;;;37.90
14023;BMP180;7086;48.116;11.580;2023-07-08T11:50:36;95714.00;;;37.60
14023;BMP180;7086;48.116;11.580;2023-07-08T11:53:07;95727.00;;;37.40
14023;BMP180;7086;48.116;11.580;2023-07-08T11:55:38;95728.00;;;37.20
14023;BMP180;7086;48.116;11.580;2023-07-08T11:58:19;95720.00;;;36.90
14023;BMP180;7086;48.116;11.580;2023-07-08T12:00:52;95717.00;;;36.70
14023;BMP180;7086;48.116;11.580;2023-07-08T12:03:34;95706.00;;;36.60
14023;BMP180;7086;48.116;11.580;2023-07-08T12:06:01;95702.00;;;36.40
14023;BMP180;7086;48.116;11.580;2023-07-08T12:08:34;95699.00;;;36.30
14023;BMP180;7086;48.116;11.580;2023-07-08T12:11:10;95681.00;;;36.20
14023;BMP180;7086;48.116;11.580;2023-07-08T12:13:39;95724.00;;;36.10
14023;BMP180;7086;48.116;11.580;2023-07-08T12:16:09;95714.00;;;36.00
14023;BMP180;7086;48.116;11.580;2023-07-08T12:18:38;95715.00;;;35.90
14023;BMP180;7086;48.116;11.580;2023-07-08T12:21:11;95717.00;;;35.90
14023;BMP180;7086;48.116;11.580;2023-07-08T12:23:44;95715.00;;;35.80
14023;BMP180;7086;48.116;11.580;2023-07-08T12:26:13;95697.00;;;35.60
14023;BMP180;7086;48.116;11.580;2023-07-08T12:28:41;95705.00;;;35.50
14023;BMP180;7086;48.116;11.580;2023-07-08T12:31:13;95700.00;;;35.50
14023;BMP180;7086;48.116;11.580;2023-07-08T12:33:41;95704.00;;;35.50
14023;BMP180;7086;48.116;11.580;2023-07-08T12:36:18;95695.00;;;35.50
14023;BMP180;7086;48.116;11.580;2023-07-08T12:38:46;95694.00;;;35.50
14023;BMP180;7086;48.116;11.580;2023-07-08T12:41:17;95688.00;;;35.60
14023;BMP180;7086;48.116;11.580;2023-07-08T12:43:45;95686.00;;;35.70
14023;BMP180;7086;48.116;11.580;2023-07-08T12:46:12;95691.00;;;35.70
14023;BMP180;7086;48.116;11.580;2023-07-08T12:48:40;95691.00;;;35.80
14023;BMP180;7086;48.116;11.580;2023-07-08T12:51:13;95691.00;;;35.90
14023;BMP180;7086;48.116;11.580;2023-07-08T12:53:41;95692.00;;;36.00
14023;BMP180;7086;48.116;11.580;2023-07-08T12:56:09;95679.00;;;36.00
14023;BMP180;7086;48.116;11.580;2023-07-08T12:58:42;95683.00;;;36.10
14023;BMP180;7086;48.116;11.580;2023-07-08T13:01:15;95684.00;;;36.20
14023;BMP180;7086;48.116;11.580;2023-07-08T13:03:45;95687.00;;;36.30
14023;BMP180;7086;48.116;11.580;2023-07-08T13:06:16;95690.00;;;36.50
14023;BMP180;7086;48.116;11.580;2023-07-08T13:08:43;95683.00;;;36.60
14023;BMP180;7086;48.116;11.580;2023-07-08T13:11:13;95672.00;;;36.60
14023;BMP180;7086;48.116;11.580;2023-07-08T13:13:48;95694.00;;;36.60
14023;BMP180;7086;48.116;11.580;2023-07-08T13:16:16;95694.00;;;36.50
14023;BMP180;7086;48.116;11.580;2023-07-08T13:18:43;95695.00;;;36.40
14023;BMP180;7086;48.116;11.580;2023-07-08T13:21:13;95700.00;;;36.30
14023;BMP180;7086;48.116;11.580;2023-07-08T13:23:42;95695.00;;;36.20
14023;BMP180;7086;48.116;11.580;2023-07-08T13:26:13;95700.00;;;36.20
14023;BMP180;7086;48.116;11.580;2023-07-08T13:28:40;95704.00;;;36.10
14023;BMP180;7086;48.116;11.580;2023-07-08T13:31:16;95695.00;;;36.00
14023;BMP180;7086;48.116;11.580;2023-07-08T13:33:46;95697.00;;;35.90
14023;BMP180;7086;48.116;11.580;2023-07-08T13:36:13;95691.00;;;35.80
14023;BMP180;7086;48.116;11.580;2023-07-08T13:38:42;95689.00;;;35.80
14023;BMP180;7086;48.116;11.580;2023-07-08T13:41:09;95697.00;;;35.80
14023;BMP180;7086;48.116;11.580;2023-07-08T13:43:39;95686.00;;;35.70
14023;BMP180;7086;48.116;11.580;2023-07-08T13:48:51;95691.00;;;35.50
14023;BMP180;7086;48.116;11.580;2023-07-08T13:51:21;95686.00;;;35.50
14023;BMP180;7086;48.116;11.580;2023-07-08T13:53:50;95698.00;;;35.60
14023;BMP180;7086;48.116;11.580;2023-07-08T13:56:21;95693.00;;;35.70
14023;BMP180;7086;48.116;11.580;2023-07-08T13:58:51;95676.00;;;35.70
14023;BMP180;7086;48.116;11.580;2023-07-08T14:01:22;95687.00;;;35.70
14023;BMP180;7086;48.116;11.580;2023-07-08T14:03:53;95686.00;;;35.80
14023;BMP180;7086;48.116;11.580;2023-07-08T14:06:21;95687.00;;;35.90
14023;BMP180;7086;48.116;11.580;2023-07-08T14:08:49;95681.00;;;35.90
14023;BMP180;7086;48.116;11.580;2023-07-08T14:11:15;95681.00;;;36.00
14023;BMP180;7086;48.116;11.580;2023-07-08T14:13:42;95683.00;;;36.00
14023;BMP180;7086;48.116;11.580;2023-07-08T14:16:17;95676.00;;;36.10
14023;BMP180;7086;48.116;11.580;2023-07-08T14:18:47;95678.00;;;36.10
14023;BMP180;7086;48.116;11.580;2023-07-08T14:21:15;95677.00;;;36.10
14023;BMP180;7086;48.116;11.580;2023-07-08T14:23:43;95679.00;;;36.10